< Typhoon 202022 2020 Season Typhoon 202101 >
Typhoon 202023 (KROVANH)
General InformationTrack Information on Google MapsDetailed Wind InformationForecast History on Google MapsAccess Analytics MapList of All Images || NewsDisaster Info.WeblogTrackbackTyphoon FrontTwiphoonTyphoon Now!Typhoon ImaginationJMA Disaster Info. XMLResourceGoogle EarthGE AnimationAtom FeedGeoJSON
Detalied Best Track (Time Zone = UTC)
Year Month Day Hour Lat. Long. Pressure (hPa) Wind (kt) Class Image Chart
2020 12 18 00 7.2 127.2 1004 0 2 Image Chart
2020 12 18 06 8.2 126.1 1002 0 2 Image Chart
2020 12 18 12 9.4 124.2 1004 0 2 Image Chart
2020 12 18 18 8.6 122.3 1004 0 2 Image Chart
2020 12 19 00 8.6 120.9 1004 0 2 Image Chart
2020 12 19 06 9.2 119.3 1004 0 2 Image Chart
2020 12 19 12 9.9 117.7 1004 0 2 Image Chart
2020 12 19 18 9.2 116.1 1004 0 2 Image Chart
2020 12 20 00 9.6 115.7 1002 35 3 Image Chart
2020 12 20 06 10.0 115.2 1000 35 3 Image Chart
2020 12 20 12 9.8 114.5 1002 35 3 Image Chart
2020 12 20 18 9.4 114.1 1002 35 3 Image Chart
2020 12 21 00 9.0 113.5 1002 35 3 Image Chart
2020 12 21 06 8.8 112.8 1002 35 3 Image Chart
2020 12 21 12 8.6 112.1 1002 35 3 Image Chart
2020 12 21 18 8.1 111.4 1002 35 3 Image Chart
2020 12 22 00 7.3 111.1 1002 35 3 Image Chart
2020 12 22 06 7.7 110.6 1004 0 2 Image Chart
2020 12 22 12 8.1 110.2 1004 0 2 Image Chart
2020 12 22 18 8.0 109.4 1004 0 2 Image Chart
2020 12 23 00 8.1 109.1 1006 0 2 Image Chart
2020 12 23 06 8.6 107.8 1006 0 2 Image Chart
2020 12 23 12 8.0 106.2 1006 0 2 Image Chart
2020 12 23 18 7.7 105.2 1006 0 2 Image Chart
2020 12 24 00 7.5 103.9 1006 0 2 Image Chart
2020 12 24 06 7.6 102.8 1004 0 2 Image Chart
2020 12 24 12 8.2 101.7 1006 0 2 Image Chart
2020 12 24 18 9.0 100.6 1008 0 2 Image Chart
2020 12 25 00 9.9 99.6 1008 0 2 Image Chart
Japan Meteorological Agency Best Track Data | Correction Date : 2021-02-07
< Typhoon 202022 2020 Season Typhoon 202101 >

Help